createdAt,value
2019-02-05T00:02:50.821Z,12.00
2019-02-05T00:05:53.838Z,7.53
2019-02-05T00:08:56.566Z,11.43
2019-02-05T00:11:59.259Z,10.30
2019-02-05T00:15:01.991Z,9.83
2019-02-05T00:18:04.837Z,14.60
2019-02-05T00:21:07.635Z,14.23
2019-02-05T00:24:10.594Z,13.50
2019-02-05T00:27:13.247Z,11.90
2019-02-05T00:30:16.559Z,12.27
2019-02-05T00:33:19.639Z,11.43
2019-02-05T00:36:22.397Z,10.07
2019-02-05T00:39:25.057Z,13.97
2019-02-05T00:42:28.009Z,11.17
2019-02-05T00:45:30.660Z,11.43
2019-02-05T00:48:33.371Z,12.10
2019-02-05T00:51:36.152Z,12.40
2019-02-05T00:54:38.827Z,14.10
2019-02-05T00:57:41.542Z,11.37
2019-02-05T01:00:44.248Z,25.30
2019-02-05T01:03:46.920Z,13.20
2019-02-05T01:06:49.621Z,13.23
2019-02-05T01:09:52.267Z,13.70
2019-02-05T01:12:55.169Z,12.23
2019-02-05T01:15:58.281Z,13.83
2019-02-05T01:19:01.115Z,14.30
2019-02-05T01:22:03.972Z,15.40
2019-02-05T01:25:06.800Z,15.57
2019-02-05T01:28:09.439Z,13.00
2019-02-05T01:31:12.010Z,14.50
2019-02-05T01:34:14.590Z,16.40
2019-02-05T01:37:17.334Z,18.10
2019-02-05T01:40:22.069Z,14.10
2019-02-05T01:43:24.834Z,17.87
2019-02-05T01:46:27.496Z,21.90
2019-02-05T01:49:30.248Z,15.50
2019-02-05T01:52:33.080Z,21.33
2019-02-05T01:55:35.800Z,19.97
2019-02-05T01:58:38.494Z,19.03
2019-02-05T02:01:41.484Z,19.80
2019-02-05T02:04:44.200Z,19.73
2019-02-05T02:07:46.921Z,18.50
2019-02-05T02:10:50.075Z,17.47
2019-02-05T02:13:52.714Z,19.20
2019-02-05T02:16:55.291Z,19.20
2019-02-05T02:19:58.049Z,30.57
2019-02-05T02:23:00.730Z,18.60
2019-02-05T02:26:03.738Z,22.10
2019-02-05T02:29:06.409Z,19.10
2019-02-05T02:32:09.115Z,19.13
2019-02-05T02:35:11.960Z,23.27
2019-02-05T02:38:14.777Z,22.33
2019-02-05T02:41:17.860Z,20.10
2019-02-05T02:44:20.546Z,18.40
2019-02-05T02:47:23.345Z,21.63
2019-02-05T02:50:25.995Z,19.37
2019-02-05T02:53:28.752Z,19.70
2019-02-05T02:56:31.475Z,25.80
2019-02-05T02:59:34.278Z,21.97
2019-02-05T03:02:37.134Z,20.50
2019-02-05T03:05:39.999Z,21.07
2019-02-05T03:08:45.760Z,20.80
2019-02-05T03:11:48.775Z,21.60
2019-02-05T03:14:51.571Z,20.03
2019-02-05T03:17:54.335Z,19.50
2019-02-05T03:20:57.004Z,23.00
2019-02-05T03:23:59.820Z,30.03
2019-02-05T03:27:02.543Z,24.10
2019-02-05T03:30:06.720Z,24.83
2019-02-05T03:33:10.430Z,25.00
2019-02-05T03:36:13.434Z,23.40
2019-02-05T03:39:16.105Z,29.83
2019-02-05T03:42:18.701Z,25.30
2019-02-05T03:45:22.411Z,24.77
2019-02-05T03:48:25.544Z,27.17
2019-02-05T03:52:00.171Z,24.83
2019-02-05T03:55:50.007Z,26.67
2019-02-05T03:59:33.176Z,25.80
2019-02-05T04:03:19.375Z,25.40
2019-02-05T04:06:46.249Z,32.67
2019-02-05T04:10:39.922Z,23.40
2019-02-05T04:14:19.280Z,26.47
2019-02-05T04:18:00.862Z,31.43
2019-02-05T04:21:34.206Z,34.30
2019-02-05T04:25:21.260Z,28.50
2019-02-05T04:28:57.201Z,28.67
2019-02-05T04:32:41.905Z,27.60
2019-02-05T04:36:26.002Z,32.20
2019-02-05T04:40:05.932Z,37.90
2019-02-05T04:43:35.899Z,34.03
2019-02-05T04:47:26.616Z,31.23
2019-02-05T04:50:51.310Z,31.93
2019-02-05T04:54:06.300Z,34.93
2019-02-05T04:58:01.749Z,40.50
2019-02-05T05:01:18.869Z,43.87
2019-02-05T05:04:56.565Z,33.60
2019-02-05T05:08:30.720Z,37.17
2019-02-05T05:11:33.379Z,36.50
2019-02-05T05:14:36.192Z,37.77
2019-02-05T05:17:39.041Z,42.90
2019-02-05T05:20:42.511Z,42.37
2019-02-05T05:23:45.464Z,41.17
2019-02-05T05:26:49.190Z,41.03
2019-02-05T05:29:52.069Z,38.27
2019-02-05T05:32:54.772Z,43.97
2019-02-05T05:35:57.455Z,45.23
2019-02-05T05:39:00.263Z,46.23
2019-02-05T05:42:03.484Z,44.13
2019-02-05T05:45:10.014Z,47.50
2019-02-05T05:48:12.701Z,49.10
2019-02-05T05:51:15.354Z,49.70
2019-02-05T05:54:18.130Z,50.40
2019-02-05T05:57:20.954Z,54.40
2019-02-05T06:00:23.835Z,51.67
2019-02-05T06:03:26.585Z,53.63
2019-02-05T06:06:29.321Z,54.00
2019-02-05T06:09:32.696Z,53.73
2019-02-05T06:12:35.401Z,51.10
2019-02-05T06:15:38.150Z,52.57
2019-02-05T06:18:40.939Z,60.03
2019-02-05T06:21:43.729Z,54.97
2019-02-05T06:24:46.453Z,55.60
2019-02-05T06:27:49.159Z,53.70
2019-02-05T06:30:51.827Z,59.57
2019-02-05T06:33:55.048Z,59.93
2019-02-05T06:36:57.705Z,56.50
2019-02-05T06:40:01.576Z,55.87
2019-02-05T06:43:04.574Z,59.37
2019-02-05T06:46:07.279Z,63.20
2019-02-05T06:49:09.963Z,58.53
2019-02-05T06:52:12.703Z,56.60
2019-02-05T06:55:15.557Z,55.43
2019-02-05T06:58:21.208Z,59.83
2019-02-05T07:01:23.930Z,59.27
2019-02-05T07:04:26.635Z,62.20
2019-02-05T07:07:29.421Z,58.17
2019-02-05T07:10:32.174Z,58.70
2019-02-05T07:13:34.900Z,58.23
2019-02-05T07:16:37.608Z,58.07
2019-02-05T07:19:40.355Z,61.73
2019-02-05T07:22:43.459Z,60.53
2019-02-05T07:25:46.329Z,59.13
2019-02-05T07:28:58.123Z,69.13
2019-02-05T07:31:53.537Z,58.33
2019-02-05T07:34:56.215Z,65.43
2019-02-05T07:37:58.935Z,61.20
2019-02-05T07:41:01.738Z,58.40
2019-02-05T07:44:05.090Z,61.13
2019-02-05T07:47:07.841Z,57.37
2019-02-05T07:50:16.299Z,62.33
2019-02-05T07:53:19.866Z,61.30
2019-02-05T07:56:22.599Z,58.07
2019-02-05T07:59:25.878Z,53.30
2019-02-05T08:02:28.611Z,58.10
2019-02-05T08:05:31.886Z,54.63
2019-02-05T08:08:34.709Z,54.73
2019-02-05T08:11:41.259Z,51.33
2019-02-05T08:14:42.988Z,50.13
2019-02-05T08:17:45.881Z,52.43
2019-02-05T08:20:50.510Z,52.70
2019-02-05T08:23:53.275Z,46.20
2019-02-05T08:26:55.980Z,45.90
2019-02-05T08:29:58.691Z,46.70
2019-02-05T08:33:01.440Z,45.47
2019-02-05T08:36:04.302Z,43.07
2019-02-05T08:39:08.997Z,42.97
2019-02-05T08:42:11.779Z,41.40
2019-02-05T08:45:17.059Z,44.90
2019-02-05T08:48:21.035Z,41.80
2019-02-05T08:51:23.735Z,43.53
2019-02-05T08:54:26.599Z,41.83
2019-02-05T08:57:29.345Z,44.10
2019-02-05T09:00:36.164Z,45.13
2019-02-05T09:03:40.236Z,48.37
2019-02-05T09:06:43.051Z,46.20
2019-02-05T09:09:49.745Z,45.67
2019-02-05T09:12:52.410Z,42.00
2019-02-05T09:15:55.255Z,47.77
2019-02-05T09:18:58.319Z,49.53
2019-02-05T09:22:01.763Z,48.83
2019-02-05T09:25:08.049Z,60.40
2019-02-05T09:28:11.220Z,52.80
2019-02-05T09:31:13.953Z,57.33
2019-02-05T09:34:16.759Z,51.43
2019-02-05T09:37:19.472Z,52.60
2019-02-05T09:40:25.216Z,50.03
2019-02-05T09:43:27.999Z,53.80
2019-02-05T09:46:30.739Z,51.40
2019-02-05T09:49:33.502Z,47.40
2019-02-05T09:52:36.289Z,51.53
2019-02-05T09:55:39.089Z,52.70
2019-02-05T09:58:42.834Z,51.23
2019-02-05T10:01:45.663Z,56.13
2019-02-05T10:04:48.354Z,53.40
2019-02-05T10:07:51.258Z,46.60
2019-02-05T10:10:53.947Z,51.63
2019-02-05T10:13:56.817Z,52.50
2019-02-05T10:16:59.622Z,51.07
2019-02-05T10:20:02.803Z,47.27
2019-02-05T10:23:06.838Z,52.93
2019-02-05T10:26:09.571Z,51.77
2019-02-05T10:29:12.344Z,50.77
2019-02-05T10:32:15.009Z,43.67
2019-02-05T10:35:17.952Z,45.10
2019-02-05T10:38:20.733Z,45.90
2019-02-05T10:41:23.543Z,50.03
2019-02-05T10:44:26.228Z,47.07
2019-02-05T10:47:29.181Z,47.57
2019-02-05T10:50:32.023Z,50.67
2019-02-05T10:53:35.776Z,53.40
2019-02-05T10:56:38.376Z,52.93
2019-02-05T10:59:41.053Z,48.23
2019-02-05T11:02:43.708Z,53.00
2019-02-05T11:05:46.479Z,46.67
2019-02-05T11:08:49.149Z,57.33
2019-02-05T11:11:51.938Z,56.20
2019-02-05T11:14:54.818Z,45.90
2019-02-05T11:17:57.650Z,48.20
2019-02-05T11:21:00.582Z,51.83
2019-02-05T11:24:03.647Z,46.73
2019-02-05T11:27:06.384Z,46.47
2019-02-05T11:30:20.206Z,44.80
2019-02-05T11:33:22.803Z,48.53
2019-02-05T11:36:26.712Z,44.27
2019-02-05T11:39:30.829Z,49.40
2019-02-05T11:42:33.564Z,49.77
2019-02-05T11:45:36.490Z,49.13
2019-02-05T11:48:39.223Z,50.90
2019-02-05T11:51:41.963Z,52.07
2019-02-05T11:54:44.668Z,54.67
2019-02-05T11:57:47.423Z,53.50
2019-02-05T12:00:54.659Z,50.57
2019-02-05T12:03:57.352Z,50.60
2019-02-05T12:07:00.039Z,48.40
2019-02-05T12:10:03.488Z,48.13
2019-02-05T12:13:06.520Z,54.77
2019-02-05T12:16:09.264Z,49.57
2019-02-05T12:19:11.909Z,52.20
2019-02-05T12:22:14.636Z,46.70
2019-02-05T12:25:17.513Z,57.73
2019-02-05T12:28:21.425Z,55.27
2019-02-05T12:31:24.107Z,56.47
2019-02-05T12:34:26.802Z,54.60
2019-02-05T12:37:29.812Z,52.70
2019-02-05T12:40:32.494Z,62.90
2019-02-05T12:43:35.333Z,53.40
2019-02-05T12:46:39.062Z,59.93
2019-02-05T12:49:41.849Z,48.00
2019-02-05T12:52:44.498Z,50.67
2019-02-05T12:55:47.320Z,50.07
2019-02-05T12:58:50.102Z,55.77
2019-02-05T13:01:52.913Z,49.97
2019-02-05T13:04:55.617Z,47.77
2019-02-05T13:07:58.354Z,48.80
2019-02-05T13:11:01.127Z,51.10
2019-02-05T13:14:04.258Z,48.10
2019-02-05T13:17:07.124Z,45.00
2019-02-05T13:20:13.647Z,47.47
2019-02-05T13:23:16.489Z,42.17
2019-02-05T13:26:19.173Z,38.00
2019-02-05T13:29:21.820Z,45.43
2019-02-05T13:32:24.563Z,43.97
2019-02-05T13:35:27.657Z,41.37
2019-02-05T13:38:30.438Z,43.87
2019-02-05T13:41:33.211Z,45.40
2019-02-05T13:44:36.003Z,38.93
2019-02-05T13:47:39.117Z,37.47
2019-02-05T13:50:41.838Z,34.60
2019-02-05T13:53:44.463Z,40.73
2019-02-05T13:56:47.594Z,37.90
2019-02-05T13:59:50.139Z,35.60
2019-02-05T14:02:53.040Z,37.97
2019-02-05T14:05:55.903Z,38.50
2019-02-05T14:09:09.998Z,42.97
2019-02-05T14:12:03.068Z,37.43
2019-02-05T14:15:07.275Z,30.63
2019-02-05T14:18:10.514Z,30.03
2019-02-05T14:21:13.367Z,39.57
2019-02-05T14:24:16.162Z,37.00
2019-02-05T14:27:18.839Z,34.80
2019-02-05T14:30:29.098Z,34.63
2019-02-05T14:33:31.794Z,32.73
2019-02-05T14:36:34.376Z,36.23
2019-02-05T14:39:37.085Z,36.97
2019-02-05T14:42:39.742Z,34.10
2019-02-05T14:45:42.418Z,33.47
2019-02-05T14:48:45.207Z,32.47
2019-02-05T14:51:47.906Z,29.47
2019-02-05T14:54:50.758Z,35.23
2019-02-05T14:57:53.408Z,37.90
2019-02-05T15:00:56.029Z,36.80
2019-02-05T15:03:58.668Z,31.10
2019-02-05T15:07:01.357Z,31.47
2019-02-05T15:10:05.787Z,31.50
2019-02-05T15:13:08.691Z,34.73
2019-02-05T15:16:11.428Z,31.77
2019-02-05T15:19:14.192Z,32.67
2019-02-05T15:22:16.813Z,35.50
2019-02-05T15:25:20.057Z,29.60
2019-02-05T15:28:23.857Z,33.13
2019-02-05T15:31:26.830Z,32.90
2019-02-05T15:34:30.808Z,34.80
2019-02-05T15:37:33.493Z,32.97
2019-02-05T15:40:36.567Z,32.33
2019-02-05T15:43:39.453Z,33.20
2019-02-05T15:46:42.121Z,30.83
2019-02-05T15:49:44.919Z,32.97
2019-02-05T15:52:47.983Z,35.87
2019-02-05T15:55:50.842Z,34.10
2019-02-05T15:58:53.497Z,31.47
2019-02-05T16:02:06.072Z,36.80
2019-02-05T16:05:00.963Z,32.57
2019-02-05T16:08:03.999Z,36.00
2019-02-05T16:11:07.057Z,32.90
2019-02-05T16:14:10.582Z,34.87
2019-02-05T16:17:13.421Z,32.97
2019-02-05T16:20:16.461Z,37.83
2019-02-05T16:23:19.172Z,34.13
2019-02-05T16:26:21.877Z,30.07
2019-02-05T16:29:24.783Z,34.63
2019-02-05T16:32:27.446Z,35.23
2019-02-05T16:35:30.162Z,38.93
2019-02-05T16:38:32.919Z,31.67
2019-02-05T16:41:35.648Z,33.20
2019-02-05T16:44:39.737Z,36.70
2019-02-05T16:47:42.327Z,32.23
2019-02-05T16:50:46.316Z,33.33
2019-02-05T16:53:49.256Z,32.90
2019-02-05T16:56:51.983Z,30.90
2019-02-05T16:59:54.668Z,32.87
2019-02-05T17:02:57.469Z,32.03
2019-02-05T17:06:28.527Z,30.63
2019-02-05T17:09:32.681Z,33.10
2019-02-05T17:12:35.501Z,34.27
2019-02-05T17:15:40.367Z,31.63
2019-02-05T17:18:43.033Z,35.73
2019-02-05T17:21:47.490Z,33.20
2019-02-05T17:24:50.352Z,32.47
2019-02-05T17:27:54.286Z,36.40
2019-02-05T17:30:57.523Z,28.47
2019-02-05T17:34:00.723Z,30.40
2019-02-05T17:37:03.712Z,35.00
2019-02-05T17:40:08.317Z,28.30
2019-02-05T17:43:11.394Z,31.43
2019-02-05T17:46:14.332Z,29.47
2019-02-05T17:49:17.157Z,28.40
2019-02-05T17:52:20.078Z,34.40
2019-02-05T17:55:26.284Z,38.43
2019-02-05T17:58:28.994Z,32.60
2019-02-05T18:01:32.046Z,33.70
2019-02-05T18:04:47.723Z,35.30
2019-02-05T18:07:57.222Z,29.87
2019-02-05T18:11:00.817Z,33.57
2019-02-05T18:14:03.868Z,42.13
2019-02-05T18:17:06.655Z,28.80
2019-02-05T18:20:09.765Z,30.77
2019-02-05T18:23:12.735Z,39.43
2019-02-05T18:26:15.635Z,35.80
2019-02-05T18:29:18.486Z,30.77
2019-02-05T18:32:21.354Z,35.07
2019-02-05T18:35:24.367Z,32.63
2019-02-05T18:38:27.329Z,37.40
2019-02-05T18:41:30.013Z,28.90
2019-02-05T18:44:37.942Z,30.90
2019-02-05T18:47:40.798Z,36.27
2019-02-05T18:50:43.576Z,34.30
2019-02-05T18:53:46.503Z,38.97
2019-02-05T18:56:49.633Z,32.63
2019-02-05T18:59:52.632Z,39.53
2019-02-05T19:02:55.357Z,41.43
2019-02-05T19:05:58.632Z,34.67
2019-02-05T19:09:01.491Z,36.07
2019-02-05T19:12:05.158Z,41.43
2019-02-05T19:15:14.203Z,35.00
2019-02-05T19:18:17.097Z,29.37
2019-02-05T19:21:20.067Z,32.20
2019-02-05T19:24:41.292Z,29.23
2019-02-05T19:27:44.141Z,39.23
2019-02-05T19:30:47.350Z,39.50
2019-02-05T19:33:50.187Z,34.20
2019-02-05T19:36:53.237Z,36.67
2019-02-05T19:39:56.343Z,39.90
2019-02-05T19:42:59.109Z,38.80
2019-02-05T19:46:21.394Z,41.07
2019-02-05T19:49:26.366Z,31.20
2019-02-05T19:52:29.339Z,33.37
2019-02-05T19:55:32.298Z,37.17
2019-02-05T19:58:35.289Z,40.97
2019-02-05T20:01:38.570Z,47.53
2019-02-05T20:04:41.341Z,49.50
2019-02-05T20:07:44.477Z,46.90
2019-02-05T20:10:47.531Z,53.73
2019-02-05T20:13:50.186Z,54.80
2019-02-05T20:16:53.047Z,53.43
2019-02-05T20:19:56.102Z,57.17
2019-02-05T20:22:59.425Z,51.80
2019-02-05T20:26:02.769Z,47.90
2019-02-05T20:29:05.772Z,55.53
2019-02-05T20:32:11.281Z,52.73
2019-02-05T20:35:14.156Z,48.37
2019-02-05T20:38:16.999Z,42.03
2019-02-05T20:41:20.412Z,44.97
2019-02-05T20:44:23.493Z,51.53
2019-02-05T20:47:26.547Z,47.63
2019-02-05T20:50:31.658Z,52.80
2019-02-05T20:53:34.997Z,56.97
2019-02-05T20:56:38.366Z,59.13
2019-02-05T20:59:41.548Z,62.07
2019-02-05T21:02:44.889Z,63.70
2019-02-05T21:05:49.887Z,62.23
2019-02-05T21:08:53.387Z,71.40
2019-02-05T21:11:56.349Z,60.93
2019-02-05T21:14:59.213Z,64.10
2019-02-05T21:18:01.968Z,66.57
2019-02-05T21:21:05.836Z,71.53
2019-02-05T21:24:08.739Z,65.03
2019-02-05T21:27:11.942Z,68.97
2019-02-05T21:30:17.759Z,61.17
2019-02-05T21:33:20.529Z,69.53
2019-02-05T21:36:23.261Z,62.57
2019-02-05T21:39:26.023Z,69.30
2019-02-05T21:42:28.695Z,62.80
2019-02-05T21:45:31.551Z,64.80
2019-02-05T21:48:34.208Z,62.50
2019-02-05T21:54:41.457Z,72.00
2019-02-05T21:57:44.331Z,65.33
2019-02-05T22:00:47.179Z,61.10
2019-02-05T22:03:50.065Z,63.37
2019-02-05T22:06:53.781Z,60.67
2019-02-05T22:09:56.543Z,60.80
2019-02-05T22:12:59.355Z,63.90
2019-02-05T22:16:03.560Z,63.23
2019-02-05T22:19:06.362Z,63.27
2019-02-05T22:22:10.513Z,55.07
2019-02-05T22:25:18.702Z,68.57
2019-02-05T22:28:22.453Z,68.50
2019-02-05T22:31:25.663Z,51.17
2019-02-05T22:34:38.902Z,58.77
2019-02-05T22:37:34.301Z,55.07
2019-02-05T22:40:36.959Z,55.13
2019-02-05T22:43:40.087Z,58.47
2019-02-05T22:46:42.823Z,55.00
2019-02-05T22:49:45.684Z,57.57
2019-02-05T22:52:48.493Z,57.80
2019-02-05T22:55:51.181Z,60.67
2019-02-05T22:58:53.951Z,58.93
2019-02-05T23:01:58.923Z,58.30
2019-02-05T23:05:23.629Z,58.93
2019-02-05T23:08:26.543Z,57.33
2019-02-05T23:11:45.162Z,57.30
2019-02-05T23:14:52.220Z,56.53
2019-02-05T23:17:55.209Z,58.67
2019-02-05T23:20:58.902Z,52.10
2019-02-05T23:24:01.649Z,69.67
2019-02-05T23:27:05.761Z,57.27
2019-02-05T23:30:32.882Z,57.60
2019-02-05T23:33:35.655Z,52.87
2019-02-05T23:36:38.376Z,62.53
2019-02-05T23:39:42.922Z,62.40
2019-02-05T23:42:45.611Z,56.33
2019-02-05T23:46:00.880Z,65.20
2019-02-05T23:48:52.807Z,60.20
2019-02-05T23:51:55.541Z,55.87
2019-02-05T23:54:58.240Z,61.37
2019-02-05T23:58:00.959Z,56.30
